Portada
METAR-TAF:

METAR-TAF

Aeroports :

Dehradun, Índia

latitud: 30-11-23N, longitud: 78-10-49E, altitud: 558 m

METAR: manca

Hora: 13:21 (07:51 UTC)

Pronòstic

L'informe es va fer fa 8 hores i 51 minuts, a les 23:00 UTC
Pronòstic vàlid del 31 a les 00 UTC al 31 a les 09 UTC
Vent 4 kt del Nord-Est
Visibilitat: 3000 m
Escasses núvols a una alçada de 4000 ft
Núvols disperses a una alçada de 9000 ft
boirina
Evolucionant progressivament
l' 31 a les 02 UTC al 31 a les 04 UTC
Vent 8 kt del Est
Visibilitat: 5000 m
calitja
Temporalment
l' 31 a les 05 UTC al 31 a les 09 UTC
Vent 10 kt del Sud/Sud-Est amb ràfegues de 20 kt
Visibilitat: 2000 m
Núvols disperses a una alçada de 3000 ft
Escasses núvols a una alçada de 3500 ft, Cumulonimbus.
Cel ennuvolat a una alçada de 9000 ft
tempesta, pluja

TAF: VIDN 302300Z 3100/3109 05004KT 3000 BR FEW040 SCT090 BECMG 3102/3104 09008KT 5000 HZ TEMPO 3105/3109 15010G20KT 2000 TSRA SCT030 FEW035CB BKN090

Observacions i pronòstics meteorològics de més de 4000 aeroports (METAR i TAF).

Les estacions disponibles són els punts grocs i vermells al mapa.

Posi el ratolí al punt desitjat per veure el nom de l'estació.

Feu clic per veure les observacions i els pronòstics meteorològics.

Per canviar el mapa: feu clic els botons verds amb una creu de color negre per apropar; al botó verd amb un guió per allunyar la imatge; o en les fletxes verdes per a mapes adjacents.


METAR-TAF: